Pantego, Texas
Current Conditions -  °F | °C
As of 8:53 PM on Wednesday 22 Oct 2014 (Local Time) from KGKY Reporting Station
Clear Clear  
Wind Chill: 71°   Ceiling: Unl
Heat Index: 71°   Visibility: 10mi
Dew Point: 58°   Wind: 3mph
Humidity: 63%   Direction: 90°E
Pressure: 30.1"   Gusts: NA
Location:  32.6916°N, 97.1334°W
Report Text: KGKY 230153Z AUTO 09003KT 10SM CLR 22/14 A3010 RMK AO2 SLP187 T02170144
Loading
Personal Weather Stations






























Interactive Weather Map New forecast layout! Learn more

10-Day Weather Forecast

Advertisements
Track Severe Weather on mobile